Ouray, Utah
Current Conditions -  °F | °C
As of 5:53 PM on Sunday 23 Nov 2014 (Local Time) from KVEL Reporting Station
Clear Clear  
Wind Chill: 27°   Ceiling: Unl
Heat Index: 33°   Visibility: 10mi
Dew Point:   Wind: 7mph
Humidity: 32%   Direction: 140°SE
Pressure: 30.07"   Gusts: NA
Location:  40.2958°N, 109.84°W
Report Text: KVEL 240053Z AUTO 14006KT 10SM CLR 01/M14 A3007 RMK AO2 SLP201 T00061144
Loading
Personal Weather Stations






























Interactive Weather Map New forecast layout! Learn more

10-Day Weather Forecast

Advertisements
Track Severe Weather on mobile